createdAt,value
2023-01-22T00:00:45.911Z,-0.01
2023-01-22T00:05:47.503Z,0.01
2023-01-22T00:10:50.842Z,-0.02
2023-01-22T00:15:52.683Z,-0.01
2023-01-22T00:20:55.279Z,-0.01
2023-01-22T00:26:04.208Z,-0.04
2023-01-22T00:31:06.929Z,-0.04
2023-01-22T00:36:11.431Z,-0.05
2023-01-22T00:41:13.838Z,-0.04
2023-01-22T00:46:16.823Z,-0.07
2023-01-22T00:51:18.642Z,0.03
2023-01-22T00:56:21.219Z,0.02
2023-01-22T01:01:22.984Z,0.01
2023-01-22T01:06:25.261Z,0.05
2023-01-22T01:11:27.570Z,0.04
2023-01-22T01:16:32.248Z,0.03
2023-01-22T01:21:35.173Z,0.02
2023-01-22T01:26:37.155Z,0.03
2023-01-22T01:31:39.165Z,0.05
2023-01-22T01:36:48.692Z,0.06
2023-01-22T01:41:51.765Z,0.06
2023-01-22T01:47:06.081Z,0.07
2023-01-22T01:52:12.654Z,0.08
2023-01-22T01:57:21.447Z,0.04
2023-01-22T02:02:23.263Z,0.05
2023-01-22T02:07:24.903Z,0.05
2023-01-22T02:12:26.644Z,0.12
2023-01-22T02:17:28.328Z,0.13
2023-01-22T02:22:31.710Z,0.14
2023-01-22T02:27:34.118Z,0.18
2023-01-22T02:32:35.920Z,0.16
2023-01-22T02:37:37.553Z,0.15
2023-01-22T02:42:39.570Z,0.16
2023-01-22T02:47:41.243Z,0.18
2023-01-22T02:52:42.977Z,0.19
2023-01-22T02:57:44.620Z,0.19
2023-01-22T03:02:46.368Z,0.23
2023-01-22T03:07:48.103Z,0.25
2023-01-22T03:13:08.612Z,0.22
2023-01-22T03:18:28.871Z,0.21
2023-01-22T03:23:32.843Z,0.25
2023-01-22T03:28:34.640Z,0.24
2023-01-22T03:33:36.326Z,0.25
2023-01-22T03:38:41.484Z,0.24
2023-01-22T03:43:48.391Z,0.24
2023-01-22T03:48:53.931Z,0.26
2023-01-22T03:53:55.772Z,0.28
2023-01-22T03:58:58.513Z,0.28
2023-01-22T04:04:01.156Z,0.31
2023-01-22T04:09:03.087Z,0.28
2023-01-22T04:14:13.123Z,0.27
2023-01-22T04:19:20.526Z,0.28
2023-01-22T04:24:27.075Z,0.31
2023-01-22T04:29:28.822Z,0.29
2023-01-22T04:34:30.523Z,0.29
2023-01-22T04:39:43.358Z,0.30
2023-01-22T04:44:45.427Z,0.30
2023-01-22T04:49:47.166Z,0.29
2023-01-22T04:54:51.810Z,0.29
2023-01-22T04:59:53.856Z,0.30
2023-01-22T05:04:59.224Z,0.35
2023-01-22T05:10:01.069Z,0.33
2023-01-22T05:15:15.073Z,0.32
2023-01-22T05:20:21.356Z,0.33
2023-01-22T05:25:23.244Z,0.31
2023-01-22T05:30:25.086Z,0.31
2023-01-22T05:35:34.495Z,0.28
2023-01-22T05:40:36.282Z,0.28
2023-01-22T05:45:38.190Z,0.31
2023-01-22T05:51:03.468Z,0.31
2023-01-22T05:56:06.424Z,0.31
2023-01-22T06:01:12.480Z,0.38
2023-01-22T06:06:17.103Z,0.41
2023-01-22T06:11:18.941Z,0.45
2023-01-22T06:16:21.152Z,0.46
2023-01-22T06:21:45.506Z,0.53
2023-01-22T06:26:47.641Z,0.50
2023-01-22T06:31:50.165Z,0.48
2023-01-22T06:36:53.989Z,0.46
2023-01-22T06:41:55.758Z,0.45
2023-01-22T06:46:58.170Z,0.43
2023-01-22T06:52:01.691Z,0.43
2023-01-22T06:57:03.363Z,0.45
2023-01-22T07:02:06.844Z,0.45
2023-01-22T07:07:08.540Z,0.45
2023-01-22T07:12:10.306Z,0.45
2023-01-22T07:17:11.907Z,0.44
2023-01-22T07:22:13.618Z,0.46
2023-01-22T07:27:15.241Z,0.44
2023-01-22T07:32:16.917Z,0.44
2023-01-22T07:37:18.543Z,0.41
2023-01-22T07:42:20.167Z,0.43
2023-01-22T07:47:22.075Z,0.46
2023-01-22T07:52:23.733Z,0.48
2023-01-22T07:57:25.360Z,0.50
2023-01-22T08:02:27.037Z,0.50
2023-01-22T08:07:28.754Z,0.54
2023-01-22T08:12:30.368Z,0.58
2023-01-22T08:17:31.988Z,0.60
2023-01-22T08:22:33.644Z,0.65
2023-01-22T08:27:35.411Z,0.69
2023-01-22T08:32:38.604Z,0.74
2023-01-22T08:37:40.314Z,0.77
2023-01-22T08:42:41.968Z,0.78
2023-01-22T08:47:43.866Z,0.82
2023-01-22T08:52:45.551Z,0.84
2023-01-22T08:57:53.066Z,0.85
2023-01-22T09:03:00.940Z,0.87
2023-01-22T09:08:02.561Z,0.97
2023-01-22T09:13:04.450Z,1.00
2023-01-22T09:18:06.459Z,1.05
2023-01-22T09:23:08.281Z,1.09
2023-01-22T09:28:12.243Z,1.04
2023-01-22T09:33:13.867Z,0.99
2023-01-22T09:38:15.965Z,0.99
2023-01-22T09:43:27.895Z,0.92
2023-01-22T09:48:35.699Z,0.86
2023-01-22T09:53:37.361Z,0.86
2023-01-22T09:58:39.949Z,0.88
2023-01-22T10:03:44.405Z,0.91
2023-01-22T10:09:15.267Z,0.93
2023-01-22T10:14:18.505Z,0.98
2023-01-22T10:19:42.944Z,0.97
2023-01-22T10:24:44.615Z,1.03
2023-01-22T10:29:56.494Z,1.09
2023-01-22T10:35:14.447Z,1.07
2023-01-22T10:40:30.985Z,0.99
2023-01-22T10:45:32.940Z,0.99
2023-01-22T10:50:34.589Z,1.04
2023-01-22T10:55:38.031Z,1.06
2023-01-22T11:00:51.506Z,1.12
2023-01-22T11:05:58.855Z,1.18
2023-01-22T11:11:04.509Z,1.19
2023-01-22T11:16:11.927Z,1.19
2023-01-22T11:21:16.271Z,1.16
2023-01-22T11:26:39.630Z,1.20
2023-01-22T11:31:56.355Z,1.22
2023-01-22T11:37:11.938Z,1.21
2023-01-22T11:42:46.225Z,1.24
2023-01-22T11:48:18.520Z,1.21
2023-01-22T11:53:20.026Z,1.20
2023-01-22T11:59:03.105Z,1.25
2023-01-22T12:04:18.002Z,1.23
2023-01-22T12:09:42.761Z,1.21
2023-01-22T12:14:56.215Z,1.23
2023-01-22T12:20:00.859Z,1.23
2023-01-22T12:25:27.520Z,1.20
2023-01-22T12:30:42.419Z,1.30
2023-01-22T12:35:44.442Z,1.35
2023-01-22T12:40:53.124Z,1.33
2023-01-22T12:46:22.717Z,1.30
2023-01-22T12:51:36.415Z,1.24
2023-01-22T12:56:38.038Z,1.22
2023-01-22T13:01:39.949Z,1.21
2023-01-22T13:06:42.395Z,1.20
2023-01-22T13:11:44.185Z,1.21
2023-01-22T13:17:06.372Z,1.17
2023-01-22T13:22:14.110Z,1.11
2023-01-22T13:27:33.873Z,1.02
2023-01-22T13:32:36.062Z,0.95
2023-01-22T13:37:38.968Z,0.95
2023-01-22T13:42:44.743Z,0.94
2023-01-22T13:47:46.402Z,0.96
2023-01-22T13:52:50.721Z,0.93
2023-01-22T13:58:01.649Z,0.95
2023-01-22T14:03:04.319Z,0.93
2023-01-22T14:08:08.700Z,0.90
2023-01-22T14:13:12.778Z,0.94
2023-01-22T14:18:18.374Z,0.97
2023-01-22T14:23:20.543Z,0.97
2023-01-22T14:28:24.250Z,0.94
2023-01-22T14:33:31.393Z,0.90
2023-01-22T14:38:33.335Z,0.85
2023-01-22T14:43:35.821Z,0.83
2023-01-22T14:48:38.733Z,0.76
2023-01-22T14:53:41.091Z,0.73
2023-01-22T14:58:42.800Z,0.72
2023-01-22T15:03:45.007Z,0.66
2023-01-22T15:08:46.776Z,0.67
2023-01-22T15:13:49.478Z,0.63
2023-01-22T15:18:54.582Z,0.66
2023-01-22T15:23:56.315Z,0.65
2023-01-22T15:28:59.459Z,0.66
2023-01-22T15:34:02.154Z,0.66
2023-01-22T15:39:04.052Z,0.64
2023-01-22T15:44:06.169Z,0.60
2023-01-22T15:49:08.394Z,0.59
2023-01-22T15:54:16.615Z,0.60
2023-01-22T15:59:18.916Z,0.58
2023-01-22T16:04:20.594Z,0.59
2023-01-22T16:09:22.277Z,0.59
2023-01-22T16:14:24.280Z,0.61
2023-01-22T16:19:25.982Z,0.63
2023-01-22T16:24:30.263Z,0.66
2023-01-22T16:29:31.920Z,0.67
2023-01-22T16:34:33.543Z,0.70
2023-01-22T16:39:38.056Z,0.72
2023-01-22T16:44:43.702Z,0.70
2023-01-22T16:49:45.405Z,0.71
2023-01-22T16:54:48.176Z,0.72
2023-01-22T16:59:49.867Z,0.76
2023-01-22T17:04:51.596Z,0.75
2023-01-22T17:09:53.234Z,0.77
2023-01-22T17:14:55.061Z,0.78
2023-01-22T17:20:00.204Z,0.78
2023-01-22T17:25:02.329Z,0.77
2023-01-22T17:30:05.674Z,0.80
2023-01-22T17:35:09.854Z,0.75
2023-01-22T17:40:12.189Z,0.74
2023-01-22T17:45:13.948Z,0.77
2023-01-22T17:50:16.042Z,0.79
2023-01-22T17:55:18.429Z,0.78
2023-01-22T18:00:21.038Z,0.76
2023-01-22T18:05:25.476Z,0.72
2023-01-22T18:10:28.221Z,0.71
2023-01-22T18:15:29.855Z,0.66
2023-01-22T18:20:32.179Z,0.68
2023-01-22T18:25:35.024Z,0.65
2023-01-22T18:30:36.768Z,0.62
2023-01-22T18:35:38.520Z,0.61
2023-01-22T18:40:40.378Z,0.63
2023-01-22T18:45:42.171Z,0.59
2023-01-22T18:50:44.094Z,0.56
2023-01-22T18:55:45.820Z,0.52
2023-01-22T19:00:47.628Z,0.48
2023-01-22T19:05:49.681Z,0.42
2023-01-22T19:10:51.677Z,0.39
2023-01-22T19:15:53.552Z,0.36
2023-01-22T19:20:55.412Z,0.32
2023-01-22T19:26:04.951Z,0.29
2023-01-22T19:31:24.384Z,0.26
2023-01-22T19:36:28.876Z,0.20
2023-01-22T19:41:31.041Z,0.19
2023-01-22T19:46:32.806Z,0.20
2023-01-22T19:51:34.937Z,0.19
2023-01-22T19:56:38.201Z,0.20
2023-01-22T20:01:40.570Z,0.19
2023-01-22T20:06:45.173Z,0.20
2023-01-22T20:11:55.161Z,0.19
2023-01-22T20:16:57.913Z,0.19
2023-01-22T20:22:02.920Z,0.21
2023-01-22T20:27:04.552Z,0.25
2023-01-22T20:32:06.614Z,0.30
2023-01-22T20:37:08.358Z,0.31
2023-01-22T20:42:10.023Z,0.33
2023-01-22T20:47:11.852Z,0.36
2023-01-22T20:52:16.196Z,0.34
2023-01-22T20:57:19.748Z,0.36
2023-01-22T21:02:23.010Z,0.39
2023-01-22T21:07:24.741Z,0.42
2023-01-22T21:12:27.243Z,0.44
2023-01-22T21:17:28.900Z,0.45
2023-01-22T21:22:30.575Z,0.45
2023-01-22T21:27:32.350Z,0.42
2023-01-22T21:32:37.292Z,0.45
2023-01-22T21:37:39.496Z,0.55
2023-01-22T21:43:00.333Z,0.58
2023-01-22T21:48:02.056Z,0.64
2023-01-22T21:53:03.768Z,0.70
2023-01-22T21:58:08.545Z,0.72
2023-01-22T22:03:10.888Z,0.74
2023-01-22T22:08:12.573Z,0.79
2023-01-22T22:13:14.431Z,0.82
2023-01-22T22:18:16.107Z,0.87
2023-01-22T22:23:17.774Z,0.85
2023-01-22T22:28:19.463Z,0.88
2023-01-22T22:33:21.130Z,0.88
2023-01-22T22:38:22.901Z,0.90
2023-01-22T22:43:25.772Z,0.94
2023-01-22T22:48:27.713Z,0.92
2023-01-22T22:53:29.370Z,0.93
2023-01-22T22:58:31.414Z,0.94
2023-01-22T23:03:35.192Z,0.91
2023-01-22T23:08:48.507Z,0.90
2023-01-22T23:13:50.768Z,0.89
2023-01-22T23:18:52.469Z,0.86
2023-01-22T23:23:54.547Z,0.86
2023-01-22T23:28:58.770Z,0.89
2023-01-22T23:34:02.480Z,0.86
2023-01-22T23:39:04.575Z,0.89
2023-01-22T23:44:06.348Z,0.84
2023-01-22T23:49:08.015Z,0.86
2023-01-22T23:54:09.701Z,0.83
2023-01-22T23:59:11.568Z,0.84
